sensor_id;sensor_type;location;lat;lon;timestamp;temperature;humidity
56729;DHT22;42612;52.232;7.560;2023-07-20T00:01:26;22.60;54.50
56729;DHT22;42612;52.232;7.560;2023-07-20T00:03:52;22.60;54.60
56729;DHT22;42612;52.232;7.560;2023-07-20T00:06:24;22.60;54.60
56729;DHT22;42612;52.232;7.560;2023-07-20T00:08:51;22.60;54.90
56729;DHT22;42612;52.232;7.560;2023-07-20T00:11:17;22.60;54.70
56729;DHT22;42612;52.232;7.560;2023-07-20T00:13:43;22.60;54.80
56729;DHT22;42612;52.232;7.560;2023-07-20T00:16:09;22.50;54.80
56729;DHT22;42612;52.232;7.560;2023-07-20T00:18:34;22.50;54.80
56729;DHT22;42612;52.232;7.560;2023-07-20T00:21:00;22.50;54.90
56729;DHT22;42612;52.232;7.560;2023-07-20T00:23:27;22.50;55.00
56729;DHT22;42612;52.232;7.560;2023-07-20T00:25:53;22.50;55.00
56729;DHT22;42612;52.232;7.560;2023-07-20T00:28:19;22.50;55.00
56729;DHT22;42612;52.232;7.560;2023-07-20T00:30:45;22.50;55.10
56729;DHT22;42612;52.232;7.560;2023-07-20T00:33:11;22.50;55.00
56729;DHT22;42612;52.232;7.560;2023-07-20T00:35:38;22.50;55.20
56729;DHT22;42612;52.232;7.560;2023-07-20T00:38:04;22.50;55.20
56729;DHT22;42612;52.232;7.560;2023-07-20T00:40:40;22.50;55.20
56729;DHT22;42612;52.232;7.560;2023-07-20T00:43:07;22.40;55.80
56729;DHT22;42612;52.232;7.560;2023-07-20T00:45:34;22.40;55.30
56729;DHT22;42612;52.232;7.560;2023-07-20T00:48:01;22.40;55.30
56729;DHT22;42612;52.232;7.560;2023-07-20T00:50:28;22.40;55.50
56729;DHT22;42612;52.232;7.560;2023-07-20T00:52:55;22.40;55.50
56729;DHT22;42612;52.232;7.560;2023-07-20T00:55:23;22.30;55.60
56729;DHT22;42612;52.232;7.560;2023-07-20T00:57:50;22.30;55.60
56729;DHT22;42612;52.232;7.560;2023-07-20T01:00:16;22.30;55.50
56729;DHT22;42612;52.232;7.560;2023-07-20T01:02:43;22.30;55.50
56729;DHT22;42612;52.232;7.560;2023-07-20T01:05:09;22.30;55.50
56729;DHT22;42612;52.232;7.560;2023-07-20T01:07:39;22.30;55.60
56729;DHT22;42612;52.232;7.560;2023-07-20T01:10:49;22.30;55.70
56729;DHT22;42612;52.232;7.560;2023-07-20T01:13:15;22.20;55.90
56729;DHT22;42612;52.232;7.560;2023-07-20T01:15:42;22.20;55.50
56729;DHT22;42612;52.232;7.560;2023-07-20T01:18:07;22.20;55.50
56729;DHT22;42612;52.232;7.560;2023-07-20T01:20:33;22.20;55.60
56729;DHT22;42612;52.232;7.560;2023-07-20T01:30:02;22.10;56.20
56729;DHT22;42612;52.232;7.560;2023-07-20T01:32:40;22.10;55.70
56729;DHT22;42612;52.232;7.560;2023-07-20T01:35:09;22.10;55.60
56729;DHT22;42612;52.232;7.560;2023-07-20T01:37:56;22.00;55.80
56729;DHT22;42612;52.232;7.560;2023-07-20T01:40:24;22.10;56.00
56729;DHT22;42612;52.232;7.560;2023-07-20T01:42:51;22.00;55.60
56729;DHT22;42612;52.232;7.560;2023-07-20T01:45:17;21.90;55.60
56729;DHT22;42612;52.232;7.560;2023-07-20T01:47:43;21.90;55.70
56729;DHT22;42612;52.232;7.560;2023-07-20T01:50:09;21.80;55.70
56729;DHT22;42612;52.232;7.560;2023-07-20T01:52:35;21.80;55.80
56729;DHT22;42612;52.232;7.560;2023-07-20T01:55:01;21.70;55.70
56729;DHT22;42612;52.232;7.560;2023-07-20T01:57:26;21.70;55.90
56729;DHT22;42612;52.232;7.560;2023-07-20T01:59:52;21.60;55.90
56729;DHT22;42612;52.232;7.560;2023-07-20T02:02:38;21.60;55.90
56729;DHT22;42612;52.232;7.560;2023-07-20T02:05:03;21.60;56.80
56729;DHT22;42612;52.232;7.560;2023-07-20T02:07:29;21.50;56.20
56729;DHT22;42612;52.232;7.560;2023-07-20T02:09:55;21.50;56.40
56729;DHT22;42612;52.232;7.560;2023-07-20T02:12:20;21.50;56.50
56729;DHT22;42612;52.232;7.560;2023-07-20T02:14:46;21.50;56.60
56729;DHT22;42612;52.232;7.560;2023-07-20T02:17:13;21.50;56.60
56729;DHT22;42612;52.232;7.560;2023-07-20T02:19:40;21.40;56.70
56729;DHT22;42612;52.232;7.560;2023-07-20T02:22:06;21.50;56.90
56729;DHT22;42612;52.232;7.560;2023-07-20T02:24:33;21.50;56.80
56729;DHT22;42612;52.232;7.560;2023-07-20T02:26:59;21.40;56.90
56729;DHT22;42612;52.232;7.560;2023-07-20T02:29:24;21.40;56.90
56729;DHT22;42612;52.232;7.560;2023-07-20T02:31:50;21.30;57.00
56729;DHT22;42612;52.232;7.560;2023-07-20T02:34:17;21.30;57.00
56729;DHT22;42612;52.232;7.560;2023-07-20T02:36:42;21.30;57.00
56729;DHT22;42612;52.232;7.560;2023-07-20T02:39:08;21.30;57.10
56729;DHT22;42612;52.232;7.560;2023-07-20T02:41:35;21.30;57.20
56729;DHT22;42612;52.232;7.560;2023-07-20T02:44:00;21.20;57.80
56729;DHT22;42612;52.232;7.560;2023-07-20T02:46:27;21.20;57.20
56729;DHT22;42612;52.232;7.560;2023-07-20T02:48:55;21.20;57.40
56729;DHT22;42612;52.232;7.560;2023-07-20T02:51:21;21.20;57.50
56729;DHT22;42612;52.232;7.560;2023-07-20T02:53:46;21.10;57.60
56729;DHT22;42612;52.232;7.560;2023-07-20T02:56:12;21.10;57.70
56729;DHT22;42612;52.232;7.560;2023-07-20T02:58:41;21.20;57.80
56729;DHT22;42612;52.232;7.560;2023-07-20T03:01:11;21.10;58.00
56729;DHT22;42612;52.232;7.560;2023-07-20T03:03:37;21.10;57.80
56729;DHT22;42612;52.232;7.560;2023-07-20T03:06:06;21.10;57.90
56729;DHT22;42612;52.232;7.560;2023-07-20T03:08:34;21.20;57.90
56729;DHT22;42612;52.232;7.560;2023-07-20T03:11:01;21.10;57.70
56729;DHT22;42612;52.232;7.560;2023-07-20T03:13:26;21.10;57.80
56729;DHT22;42612;52.232;7.560;2023-07-20T03:15:53;21.10;57.80
56729;DHT22;42612;52.232;7.560;2023-07-20T03:18:19;21.10;57.80
56729;DHT22;42612;52.232;7.560;2023-07-20T03:20:44;21.10;57.80
56729;DHT22;42612;52.232;7.560;2023-07-20T03:23:11;21.10;57.70
56729;DHT22;42612;52.232;7.560;2023-07-20T03:25:36;21.10;57.80
56729;DHT22;42612;52.232;7.560;2023-07-20T03:28:03;21.00;57.70
56729;DHT22;42612;52.232;7.560;2023-07-20T03:30:28;21.10;57.70
56729;DHT22;42612;52.232;7.560;2023-07-20T03:32:54;21.10;57.70
56729;DHT22;42612;52.232;7.560;2023-07-20T03:35:20;21.10;57.80
56729;DHT22;42612;52.232;7.560;2023-07-20T03:37:45;21.10;57.90
56729;DHT22;42612;52.232;7.560;2023-07-20T03:40:11;21.00;57.90
56729;DHT22;42612;52.232;7.560;2023-07-20T03:42:37;21.10;58.00
56729;DHT22;42612;52.232;7.560;2023-07-20T03:45:04;21.00;58.00
56729;DHT22;42612;52.232;7.560;2023-07-20T03:47:31;21.00;58.00
56729;DHT22;42612;52.232;7.560;2023-07-20T03:49:57;21.10;58.10
56729;DHT22;42612;52.232;7.560;2023-07-20T03:52:23;21.10;58.10
56729;DHT22;42612;52.232;7.560;2023-07-20T03:54:49;21.00;58.10
56729;DHT22;42612;52.232;7.560;2023-07-20T03:57:16;21.00;58.10
56729;DHT22;42612;52.232;7.560;2023-07-20T03:59:45;21.00;58.20
56729;DHT22;42612;52.232;7.560;2023-07-20T04:02:14;21.00;59.00
56729;DHT22;42612;52.232;7.560;2023-07-20T04:04:40;21.00;58.20
56729;DHT22;42612;52.232;7.560;2023-07-20T04:07:06;21.00;58.30
56729;DHT22;42612;52.232;7.560;2023-07-20T04:09:32;21.00;58.30
56729;DHT22;42612;52.232;7.560;2023-07-20T04:11:58;21.00;58.20
56729;DHT22;42612;52.232;7.560;2023-07-20T04:14:25;20.90;58.20
56729;DHT22;42612;52.232;7.560;2023-07-20T04:16:50;21.00;58.20
56729;DHT22;42612;52.232;7.560;2023-07-20T04:19:17;21.00;58.10
56729;DHT22;42612;52.232;7.560;2023-07-20T04:21:43;20.90;58.10
56729;DHT22;42612;52.232;7.560;2023-07-20T04:24:09;21.00;58.20
56729;DHT22;42612;52.232;7.560;2023-07-20T04:26:35;21.00;58.30
56729;DHT22;42612;52.232;7.560;2023-07-20T04:29:01;21.00;58.40
56729;DHT22;42612;52.232;7.560;2023-07-20T04:31:26;20.90;58.30
56729;DHT22;42612;52.232;7.560;2023-07-20T04:33:52;20.90;58.30
56729;DHT22;42612;52.232;7.560;2023-07-20T04:36:18;20.90;58.30
56729;DHT22;42612;52.232;7.560;2023-07-20T04:38:47;20.90;58.30
56729;DHT22;42612;52.232;7.560;2023-07-20T04:41:13;20.90;58.50
56729;DHT22;42612;52.232;7.560;2023-07-20T04:43:42;21.00;58.40
56729;DHT22;42612;52.232;7.560;2023-07-20T04:46:09;21.00;58.50
56729;DHT22;42612;52.232;7.560;2023-07-20T04:48:35;20.90;58.30
56729;DHT22;42612;52.232;7.560;2023-07-20T04:51:01;20.90;58.60
56729;DHT22;42612;52.232;7.560;2023-07-20T04:53:26;21.00;58.20
56729;DHT22;42612;52.232;7.560;2023-07-20T04:55:52;20.90;58.30
56729;DHT22;42612;52.232;7.560;2023-07-20T04:58:21;20.90;58.40
56729;DHT22;42612;52.232;7.560;2023-07-20T05:00:51;20.90;58.50
56729;DHT22;42612;52.232;7.560;2023-07-20T05:03:17;20.90;58.60
56729;DHT22;42612;52.232;7.560;2023-07-20T05:05:43;20.90;58.50
56729;DHT22;42612;52.232;7.560;2023-07-20T05:08:09;20.90;58.50
56729;DHT22;42612;52.232;7.560;2023-07-20T05:10:35;21.00;58.60
56729;DHT22;42612;52.232;7.560;2023-07-20T05:13:00;21.00;58.70
56729;DHT22;42612;52.232;7.560;2023-07-20T05:15:26;21.00;58.50
56729;DHT22;42612;52.232;7.560;2023-07-20T05:17:52;20.90;58.50
56729;DHT22;42612;52.232;7.560;2023-07-20T05:20:18;20.90;58.40
56729;DHT22;42612;52.232;7.560;2023-07-20T05:22:44;20.90;58.40
56729;DHT22;42612;52.232;7.560;2023-07-20T05:25:11;21.00;58.50
56729;DHT22;42612;52.232;7.560;2023-07-20T05:27:37;20.90;58.50
56729;DHT22;42612;52.232;7.560;2023-07-20T05:30:04;20.90;58.40
56729;DHT22;42612;52.232;7.560;2023-07-20T05:32:31;20.90;58.30
56729;DHT22;42612;52.232;7.560;2023-07-20T05:34:57;21.00;58.50
56729;DHT22;42612;52.232;7.560;2023-07-20T05:37:22;20.90;58.10
56729;DHT22;42612;52.232;7.560;2023-07-20T05:39:48;20.90;58.20
56729;DHT22;42612;52.232;7.560;2023-07-20T05:42:14;20.90;58.10
56729;DHT22;42612;52.232;7.560;2023-07-20T05:44:40;20.90;58.10
56729;DHT22;42612;52.232;7.560;2023-07-20T05:47:06;21.00;58.20
56729;DHT22;42612;52.232;7.560;2023-07-20T05:49:32;20.90;58.10
56729;DHT22;42612;52.232;7.560;2023-07-20T05:51:57;20.90;58.20
56729;DHT22;42612;52.232;7.560;2023-07-20T05:54:26;21.00;58.30
56729;DHT22;42612;52.232;7.560;2023-07-20T05:56:52;21.00;58.20
56729;DHT22;42612;52.232;7.560;2023-07-20T05:59:19;21.00;58.10
56729;DHT22;42612;52.232;7.560;2023-07-20T06:01:49;20.90;58.00
56729;DHT22;42612;52.232;7.560;2023-07-20T06:04:15;20.90;58.10
56729;DHT22;42612;52.232;7.560;2023-07-20T06:06:41;20.90;58.10
56729;DHT22;42612;52.232;7.560;2023-07-20T06:09:07;20.90;58.10
56729;DHT22;42612;52.232;7.560;2023-07-20T06:11:37;20.90;58.10
56729;DHT22;42612;52.232;7.560;2023-07-20T06:14:04;21.00;58.20
56729;DHT22;42612;52.232;7.560;2023-07-20T06:16:30;21.00;58.10
56729;DHT22;42612;52.232;7.560;2023-07-20T06:18:55;20.90;57.80
56729;DHT22;42612;52.232;7.560;2023-07-20T06:21:21;20.90;58.00
56729;DHT22;42612;52.232;7.560;2023-07-20T06:23:47;21.00;58.20
56729;DHT22;42612;52.232;7.560;2023-07-20T06:26:13;21.00;58.20
56729;DHT22;42612;52.232;7.560;2023-07-20T06:28:38;21.10;58.20
56729;DHT22;42612;52.232;7.560;2023-07-20T06:31:04;21.00;58.00
56729;DHT22;42612;52.232;7.560;2023-07-20T06:33:30;21.10;58.10
56729;DHT22;42612;52.232;7.560;2023-07-20T06:35:56;21.10;58.00
56729;DHT22;42612;52.232;7.560;2023-07-20T06:38:22;21.10;58.70
56729;DHT22;42612;52.232;7.560;2023-07-20T06:40:52;21.10;57.50
56729;DHT22;42612;52.232;7.560;2023-07-20T06:43:17;21.10;57.10
56729;DHT22;42612;52.232;7.560;2023-07-20T06:45:44;21.10;57.10
56729;DHT22;42612;52.232;7.560;2023-07-20T06:48:10;21.10;57.00
56729;DHT22;42612;52.232;7.560;2023-07-20T06:50:36;21.20;57.00
56729;DHT22;42612;52.232;7.560;2023-07-20T06:53:01;21.20;56.90
56729;DHT22;42612;52.232;7.560;2023-07-20T06:55:29;21.30;56.70
56729;DHT22;42612;52.232;7.560;2023-07-20T06:57:55;21.30;56.90
56729;DHT22;42612;52.232;7.560;2023-07-20T07:00:20;21.30;56.60
56729;DHT22;42612;52.232;7.560;2023-07-20T07:02:46;21.30;56.70
56729;DHT22;42612;52.232;7.560;2023-07-20T07:05:12;21.30;56.70
56729;DHT22;42612;52.232;7.560;2023-07-20T07:07:40;21.30;56.80
56729;DHT22;42612;52.232;7.560;2023-07-20T07:10:06;21.40;56.90
56729;DHT22;42612;52.232;7.560;2023-07-20T07:12:32;21.40;56.70
56729;DHT22;42612;52.232;7.560;2023-07-20T07:14:58;21.50;56.70
56729;DHT22;42612;52.232;7.560;2023-07-20T07:17:24;21.50;56.50
56729;DHT22;42612;52.232;7.560;2023-07-20T07:19:50;21.50;56.40
56729;DHT22;42612;52.232;7.560;2023-07-20T07:22:19;21.50;56.10
56729;DHT22;42612;52.232;7.560;2023-07-20T07:24:44;21.50;56.20
56729;DHT22;42612;52.232;7.560;2023-07-20T07:27:10;21.50;56.10
56729;DHT22;42612;52.232;7.560;2023-07-20T07:29:36;21.50;55.80
56729;DHT22;42612;52.232;7.560;2023-07-20T07:32:02;21.60;55.90
56729;DHT22;42612;52.232;7.560;2023-07-20T07:34:28;21.60;55.80
56729;DHT22;42612;52.232;7.560;2023-07-20T07:36:53;21.70;55.60
56729;DHT22;42612;52.232;7.560;2023-07-20T07:39:19;21.70;55.70
56729;DHT22;42612;52.232;7.560;2023-07-20T07:41:45;21.80;55.30
56729;DHT22;42612;52.232;7.560;2023-07-20T07:44:11;21.80;55.30
56729;DHT22;42612;52.232;7.560;2023-07-20T07:46:37;21.80;55.30
56729;DHT22;42612;52.232;7.560;2023-07-20T07:49:02;21.90;54.80
56729;DHT22;42612;52.232;7.560;2023-07-20T07:51:29;21.90;54.50
56729;DHT22;42612;52.232;7.560;2023-07-20T07:53:55;21.90;54.30
56729;DHT22;42612;52.232;7.560;2023-07-20T07:56:20;22.00;54.20
56729;DHT22;42612;52.232;7.560;2023-07-20T07:58:51;22.00;53.50
56729;DHT22;42612;52.232;7.560;2023-07-20T08:01:17;22.10;53.40
56729;DHT22;42612;52.232;7.560;2023-07-20T08:03:44;22.10;53.70
56729;DHT22;42612;52.232;7.560;2023-07-20T08:06:13;22.10;53.60
56729;DHT22;42612;52.232;7.560;2023-07-20T08:08:39;22.20;53.30
56729;DHT22;42612;52.232;7.560;2023-07-20T08:11:05;22.20;53.50
56729;DHT22;42612;52.232;7.560;2023-07-20T08:13:30;22.20;53.20
56729;DHT22;42612;52.232;7.560;2023-07-20T08:15:57;22.20;52.80
56729;DHT22;42612;52.232;7.560;2023-07-20T08:18:22;22.20;52.50
56729;DHT22;42612;52.232;7.560;2023-07-20T08:20:48;22.30;52.20
56729;DHT22;42612;52.232;7.560;2023-07-20T08:23:14;22.20;51.80
56729;DHT22;42612;52.232;7.560;2023-07-20T08:25:40;22.20;51.80
56729;DHT22;42612;52.232;7.560;2023-07-20T08:28:10;22.30;51.60
56729;DHT22;42612;52.232;7.560;2023-07-20T08:30:44;22.30;51.10
56729;DHT22;42612;52.232;7.560;2023-07-20T08:33:14;22.30;49.80
56729;DHT22;42612;52.232;7.560;2023-07-20T08:35:42;22.40;51.00
56729;DHT22;42612;52.232;7.560;2023-07-20T08:38:08;22.40;51.00
56729;DHT22;42612;52.232;7.560;2023-07-20T08:40:43;22.30;50.70
56729;DHT22;42612;52.232;7.560;2023-07-20T08:43:13;22.40;50.50
56729;DHT22;42612;52.232;7.560;2023-07-20T08:45:41;22.40;50.50
56729;DHT22;42612;52.232;7.560;2023-07-20T08:48:08;22.50;51.00
56729;DHT22;42612;52.232;7.560;2023-07-20T08:50:34;22.50;50.70
56729;DHT22;42612;52.232;7.560;2023-07-20T08:53:01;22.50;50.20
56729;DHT22;42612;52.232;7.560;2023-07-20T08:55:29;22.60;50.10
56729;DHT22;42612;52.232;7.560;2023-07-20T08:57:56;22.70;50.00
56729;DHT22;42612;52.232;7.560;2023-07-20T09:00:24;22.70;49.80
56729;DHT22;42612;52.232;7.560;2023-07-20T09:02:52;22.70;49.70
56729;DHT22;42612;52.232;7.560;2023-07-20T09:05:19;22.80;49.10
56729;DHT22;42612;52.232;7.560;2023-07-20T09:07:48;22.80;49.00
56729;DHT22;42612;52.232;7.560;2023-07-20T09:10:14;22.80;49.10
56729;DHT22;42612;52.232;7.560;2023-07-20T09:12:42;22.80;48.70
56729;DHT22;42612;52.232;7.560;2023-07-20T09:15:10;22.80;49.00
56729;DHT22;42612;52.232;7.560;2023-07-20T09:17:36;22.80;48.90
56729;DHT22;42612;52.232;7.560;2023-07-20T09:20:07;22.90;48.60
56729;DHT22;42612;52.232;7.560;2023-07-20T09:22:35;22.90;48.00
56729;DHT22;42612;52.232;7.560;2023-07-20T09:25:06;22.90;48.50
56729;DHT22;42612;52.232;7.560;2023-07-20T09:27:40;22.90;48.30
56729;DHT22;42612;52.232;7.560;2023-07-20T09:30:08;23.00;46.70
56729;DHT22;42612;52.232;7.560;2023-07-20T09:32:41;23.00;47.60
56729;DHT22;42612;52.232;7.560;2023-07-20T09:35:19;23.10;47.20
56729;DHT22;42612;52.232;7.560;2023-07-20T09:37:59;23.20;47.30
56729;DHT22;42612;52.232;7.560;2023-07-20T09:40:26;23.20;47.30
56729;DHT22;42612;52.232;7.560;2023-07-20T09:42:53;23.20;47.70
56729;DHT22;42612;52.232;7.560;2023-07-20T09:45:35;23.30;47.40
56729;DHT22;42612;52.232;7.560;2023-07-20T09:48:08;23.40;46.90
56729;DHT22;42612;52.232;7.560;2023-07-20T09:50:40;23.40;47.00
56729;DHT22;42612;52.232;7.560;2023-07-20T09:53:13;23.50;46.70
56729;DHT22;42612;52.232;7.560;2023-07-20T09:55:40;23.50;46.90
56729;DHT22;42612;52.232;7.560;2023-07-20T09:58:08;23.50;47.40
56729;DHT22;42612;52.232;7.560;2023-07-20T10:00:36;23.50;46.90
56729;DHT22;42612;52.232;7.560;2023-07-20T10:03:04;23.50;46.20
56729;DHT22;42612;52.232;7.560;2023-07-20T10:05:33;23.50;46.10
56729;DHT22;42612;52.232;7.560;2023-07-20T10:08:02;23.50;47.40
56729;DHT22;42612;52.232;7.560;2023-07-20T10:10:31;23.60;46.60
56729;DHT22;42612;52.232;7.560;2023-07-20T10:13:00;23.60;46.60
56729;DHT22;42612;52.232;7.560;2023-07-20T10:15:32;23.70;46.30
56729;DHT22;42612;52.232;7.560;2023-07-20T10:18:12;23.70;45.70
56729;DHT22;42612;52.232;7.560;2023-07-20T10:20:44;23.80;45.50
56729;DHT22;42612;52.232;7.560;2023-07-20T10:23:12;23.90;46.20
56729;DHT22;42612;52.232;7.560;2023-07-20T10:25:38;23.90;45.50
56729;DHT22;42612;52.232;7.560;2023-07-20T10:28:06;24.00;45.70
56729;DHT22;42612;52.232;7.560;2023-07-20T10:30:52;24.10;45.60
56729;DHT22;42612;52.232;7.560;2023-07-20T10:33:18;24.20;45.30
56729;DHT22;42612;52.232;7.560;2023-07-20T10:36:01;24.20;45.80
56729;DHT22;42612;52.232;7.560;2023-07-20T10:41:20;24.40;44.30
56729;DHT22;42612;52.232;7.560;2023-07-20T10:43:49;24.40;44.00
56729;DHT22;42612;52.232;7.560;2023-07-20T10:49:06;24.40;43.10
56729;DHT22;42612;52.232;7.560;2023-07-20T10:51:49;24.50;44.00
56729;DHT22;42612;52.232;7.560;2023-07-20T10:56:48;24.50;44.70
56729;DHT22;42612;52.232;7.560;2023-07-20T11:01:49;24.50;42.60
56729;DHT22;42612;52.232;7.560;2023-07-20T11:04:15;24.60;43.70
56729;DHT22;42612;52.232;7.560;2023-07-20T11:06:44;24.70;43.90
56729;DHT22;42612;52.232;7.560;2023-07-20T11:09:14;24.70;43.60
56729;DHT22;42612;52.232;7.560;2023-07-20T11:11:46;24.80;43.50
56729;DHT22;42612;52.232;7.560;2023-07-20T11:14:22;24.90;42.50
56729;DHT22;42612;52.232;7.560;2023-07-20T11:16:50;24.90;42.10
56729;DHT22;42612;52.232;7.560;2023-07-20T11:19:24;25.00;43.20
56729;DHT22;42612;52.232;7.560;2023-07-20T11:24:18;25.10;42.60
56729;DHT22;42612;52.232;7.560;2023-07-20T11:26:45;25.10;43.30
56729;DHT22;42612;52.232;7.560;2023-07-20T11:29:13;25.20;42.60
56729;DHT22;42612;52.232;7.560;2023-07-20T11:31:44;25.20;42.00
56729;DHT22;42612;52.232;7.560;2023-07-20T11:34:17;25.20;41.30
56729;DHT22;42612;52.232;7.560;2023-07-20T11:36:45;25.30;40.90
56729;DHT22;42612;52.232;7.560;2023-07-20T11:39:17;25.30;42.10
56729;DHT22;42612;52.232;7.560;2023-07-20T11:41:53;25.40;41.90
56729;DHT22;42612;52.232;7.560;2023-07-20T11:44:26;25.40;41.70
56729;DHT22;42612;52.232;7.560;2023-07-20T11:47:09;25.40;41.50
56729;DHT22;42612;52.232;7.560;2023-07-20T11:49:39;25.50;40.80
56729;DHT22;42612;52.232;7.560;2023-07-20T11:52:07;25.50;41.40
56729;DHT22;42612;52.232;7.560;2023-07-20T11:54:43;25.50;41.50
56729;DHT22;42612;52.232;7.560;2023-07-20T11:57:22;25.50;40.40
56729;DHT22;42612;52.232;7.560;2023-07-20T11:59:55;25.60;40.90
56729;DHT22;42612;52.232;7.560;2023-07-20T12:02:28;25.60;41.00
56729;DHT22;42612;52.232;7.560;2023-07-20T12:04:54;25.60;41.10
56729;DHT22;42612;52.232;7.560;2023-07-20T12:07:21;25.70;41.10
56729;DHT22;42612;52.232;7.560;2023-07-20T12:10:10;25.70;41.30
56729;DHT22;42612;52.232;7.560;2023-07-20T12:12:44;25.70;40.60
56729;DHT22;42612;52.232;7.560;2023-07-20T12:17:52;25.70;41.40
56729;DHT22;42612;52.232;7.560;2023-07-20T12:20:33;25.70;41.90
56729;DHT22;42612;52.232;7.560;2023-07-20T12:23:08;25.70;42.50
56729;DHT22;42612;52.232;7.560;2023-07-20T12:25:39;25.60;42.60
56729;DHT22;42612;52.232;7.560;2023-07-20T12:28:13;25.60;43.10
56729;DHT22;42612;52.232;7.560;2023-07-20T12:30:41;25.40;43.20
56729;DHT22;42612;52.232;7.560;2023-07-20T12:33:07;25.30;43.30
56729;DHT22;42612;52.232;7.560;2023-07-20T12:35:34;25.10;43.60
56729;DHT22;42612;52.232;7.560;2023-07-20T12:38:00;24.90;43.90
56729;DHT22;42612;52.232;7.560;2023-07-20T12:40:25;24.80;44.10
56729;DHT22;42612;52.232;7.560;2023-07-20T12:42:51;24.70;45.00
56729;DHT22;42612;52.232;7.560;2023-07-20T12:45:17;24.60;44.50
56729;DHT22;42612;52.232;7.560;2023-07-20T12:47:43;24.50;44.60
56729;DHT22;42612;52.232;7.560;2023-07-20T12:50:10;24.40;44.40
56729;DHT22;42612;52.232;7.560;2023-07-20T12:52:37;24.30;44.30
56729;DHT22;42612;52.232;7.560;2023-07-20T12:55:08;24.20;44.30
56729;DHT22;42612;52.232;7.560;2023-07-20T12:57:35;24.10;44.60
56729;DHT22;42612;52.232;7.560;2023-07-20T13:00:02;24.10;44.60
56729;DHT22;42612;52.232;7.560;2023-07-20T13:02:32;24.00;44.30
56729;DHT22;42612;52.232;7.560;2023-07-20T13:04:58;23.90;44.50
56729;DHT22;42612;52.232;7.560;2023-07-20T13:07:34;23.90;44.40
56729;DHT22;42612;52.232;7.560;2023-07-20T13:10:05;23.80;44.70
56729;DHT22;42612;52.232;7.560;2023-07-20T13:12:32;23.80;44.80
56729;DHT22;42612;52.232;7.560;2023-07-20T13:14:58;23.80;45.00
56729;DHT22;42612;52.232;7.560;2023-07-20T13:17:28;23.80;45.00
56729;DHT22;42612;52.232;7.560;2023-07-20T13:19:54;23.80;45.50
56729;DHT22;42612;52.232;7.560;2023-07-20T13:22:20;23.80;45.50
56729;DHT22;42612;52.232;7.560;2023-07-20T13:24:46;23.90;45.60
56729;DHT22;42612;52.232;7.560;2023-07-20T13:27:18;24.00;45.90
56729;DHT22;42612;52.232;7.560;2023-07-20T13:29:45;24.10;46.10
56729;DHT22;42612;52.232;7.560;2023-07-20T13:32:13;24.30;46.20
56729;DHT22;42612;52.232;7.560;2023-07-20T13:34:44;24.40;46.30
56729;DHT22;42612;52.232;7.560;2023-07-20T13:37:10;24.60;45.50
56729;DHT22;42612;52.232;7.560;2023-07-20T13:39:36;24.70;45.60
56729;DHT22;42612;52.232;7.560;2023-07-20T13:42:03;24.90;45.10
56729;DHT22;42612;52.232;7.560;2023-07-20T13:44:34;25.10;44.80
56729;DHT22;42612;52.232;7.560;2023-07-20T13:47:00;25.20;44.80
56729;DHT22;42612;52.232;7.560;2023-07-20T13:49:27;25.30;44.50
56729;DHT22;42612;52.232;7.560;2023-07-20T13:51:53;25.40;44.60
56729;DHT22;42612;52.232;7.560;2023-07-20T13:54:19;25.50;44.60
56729;DHT22;42612;52.232;7.560;2023-07-20T13:56:45;25.70;44.70
56729;DHT22;42612;52.232;7.560;2023-07-20T13:59:10;25.80;44.40
56729;DHT22;42612;52.232;7.560;2023-07-20T14:01:36;25.90;44.00
56729;DHT22;42612;52.232;7.560;2023-07-20T14:04:02;26.00;44.10
56729;DHT22;42612;52.232;7.560;2023-07-20T14:06:30;26.20;43.30
56729;DHT22;42612;52.232;7.560;2023-07-20T14:08:56;26.30;43.10
56729;DHT22;42612;52.232;7.560;2023-07-20T14:11:23;26.40;43.00
56729;DHT22;42612;52.232;7.560;2023-07-20T14:13:49;26.40;42.50
56729;DHT22;42612;52.232;7.560;2023-07-20T14:16:16;26.50;42.30
56729;DHT22;42612;52.232;7.560;2023-07-20T14:18:42;26.60;42.00
56729;DHT22;42612;52.232;7.560;2023-07-20T14:21:07;26.70;42.10
56729;DHT22;42612;52.232;7.560;2023-07-20T14:23:33;26.80;42.00
56729;DHT22;42612;52.232;7.560;2023-07-20T14:25:59;26.80;41.60
56729;DHT22;42612;52.232;7.560;2023-07-20T14:28:25;26.90;41.60
56729;DHT22;42612;52.232;7.560;2023-07-20T14:30:51;27.00;41.60
56729;DHT22;42612;52.232;7.560;2023-07-20T14:33:16;27.10;41.50
56729;DHT22;42612;52.232;7.560;2023-07-20T14:35:42;27.20;41.60
56729;DHT22;42612;52.232;7.560;2023-07-20T14:38:08;27.30;41.40
56729;DHT22;42612;52.232;7.560;2023-07-20T14:40:33;27.40;41.20
56729;DHT22;42612;52.232;7.560;2023-07-20T14:42:59;27.40;41.10
56729;DHT22;42612;52.232;7.560;2023-07-20T14:45:29;27.50;41.30
56729;DHT22;42612;52.232;7.560;2023-07-20T14:47:55;27.60;40.60
56729;DHT22;42612;52.232;7.560;2023-07-20T14:50:20;27.60;40.40
56729;DHT22;42612;52.232;7.560;2023-07-20T14:52:46;27.70;40.60
56729;DHT22;42612;52.232;7.560;2023-07-20T14:55:12;27.80;40.00
56729;DHT22;42612;52.232;7.560;2023-07-20T14:57:38;27.90;39.60
56729;DHT22;42612;52.232;7.560;2023-07-20T15:00:05;28.00;39.70
56729;DHT22;42612;52.232;7.560;2023-07-20T15:02:33;28.10;39.70
56729;DHT22;42612;52.232;7.560;2023-07-20T15:04:59;28.10;39.10
56729;DHT22;42612;52.232;7.560;2023-07-20T15:07:25;28.20;38.70
56729;DHT22;42612;52.232;7.560;2023-07-20T15:09:51;28.10;38.50
56729;DHT22;42612;52.232;7.560;2023-07-20T15:12:17;28.10;38.30
56729;DHT22;42612;52.232;7.560;2023-07-20T15:14:43;28.00;38.00
56729;DHT22;42612;52.232;7.560;2023-07-20T15:17:12;27.90;38.10
56729;DHT22;42612;52.232;7.560;2023-07-20T15:19:38;27.90;37.80
56729;DHT22;42612;52.232;7.560;2023-07-20T15:22:04;27.80;38.20
56729;DHT22;42612;52.232;7.560;2023-07-20T15:24:31;27.70;38.20
56729;DHT22;42612;52.232;7.560;2023-07-20T15:26:57;27.60;38.50
56729;DHT22;42612;52.232;7.560;2023-07-20T15:29:24;27.50;38.80
56729;DHT22;42612;52.232;7.560;2023-07-20T15:31:50;27.50;39.10
56729;DHT22;42612;52.232;7.560;2023-07-20T15:34:15;27.40;39.00
56729;DHT22;42612;52.232;7.560;2023-07-20T15:36:41;27.30;39.30
56729;DHT22;42612;52.232;7.560;2023-07-20T15:39:10;27.30;39.50
56729;DHT22;42612;52.232;7.560;2023-07-20T15:41:36;27.20;39.40
56729;DHT22;42612;52.232;7.560;2023-07-20T15:44:01;27.10;40.00
56729;DHT22;42612;52.232;7.560;2023-07-20T15:49:05;27.10;39.60
56729;DHT22;42612;52.232;7.560;2023-07-20T15:51:31;27.10;39.60
56729;DHT22;42612;52.232;7.560;2023-07-20T15:53:57;27.10;39.90
56729;DHT22;42612;52.232;7.560;2023-07-20T15:56:23;27.20;40.10
56729;DHT22;42612;52.232;7.560;2023-07-20T15:58:49;27.20;39.90